»·PEaware :: N4D KEMT-KRNM

N4D :: KEMT-KRNM

FLIGHT INFORMATION

Flight Status: Arrived
Operator: Privately registered:
United States
More flights under this callsign
Pilot: Alec D. (17934)
Aircraft: BEECH AIRCRAFT A90-E90 KING AIR
(BE9L)
More flights by this aircraft type
Origin: KEMT El Monte
United States
Destination: KRNM Ramona
United States
More flights between these airports :: More routes between these airports
Route: PDZ V186 ROBNN V208 JLI
File this flight plan on PilotEdge
Remarks:
Altitude:
(Current/Filed)
11,000ft
Speed:
(Current/Filed)
235kts
Departed: 01-Aug-18 04:21 PM
Arrived: 01-Aug-18 04:50 PM
Distance/Time
Traveled:
84nm/0:29
Distance/Time
To Go:
Arrived

Flight Plot

Page will automatically refresh every two minutes.


Map Options




Map Legend


Flown Route
Filed Route
Departure Airport
Arrival Airport
Navaid (VOR, NDB)
Fix

Horizontal Profiles

Position Reports

Time Latitude Longitude Heading Altitude Ground
Speed
01-Aug-18 15:53 34.085302 -118.032837 115 301ft 0kts
01-Aug-18 15:54 34.085302 -118.032837 115 301ft 0kts
01-Aug-18 15:55 34.085302 -118.032837 115 301ft 0kts
01-Aug-18 15:56 34.085302 -118.032837 115 301ft 0kts
01-Aug-18 15:57 34.085302 -118.032837 115 301ft 0kts
01-Aug-18 15:58 34.085302 -118.032837 115 301ft 0kts
01-Aug-18 15:59 34.085302 -118.032837 115 301ft 0kts
01-Aug-18 16:00 34.085302 -118.032837 115 301ft 0kts
01-Aug-18 16:01 34.085301 -118.032833 115 301ft 0kts
01-Aug-18 16:02 34.085299 -118.032829 115 301ft 0kts
01-Aug-18 16:03 34.085298 -118.032826 115 301ft 0kts
01-Aug-18 16:04 34.085296 -118.032822 115 301ft 0kts
01-Aug-18 16:05 34.085295 -118.032819 115 301ft 0kts
01-Aug-18 16:06 34.085293 -118.032815 115 301ft 0kts
01-Aug-18 16:07 34.085292 -118.032811 115 301ft 0kts
01-Aug-18 16:08 34.085290 -118.032807 115 301ft 0kts
01-Aug-18 16:09 34.085289 -118.032803 115 301ft 0kts
01-Aug-18 16:10 34.085288 -118.032800 115 301ft 0kts
01-Aug-18 16:11 34.085286 -118.032796 115 301ft 0kts
01-Aug-18 16:12 34.085285 -118.032793 115 301ft 0kts
01-Aug-18 16:13 34.085283 -118.032789 115 301ft 0kts
01-Aug-18 16:14 34.085282 -118.032785 115 301ft 0kts
01-Aug-18 16:15 34.085280 -118.032781 115 301ft 0kts
01-Aug-18 16:16 34.085279 -118.032777 115 301ft 0kts
01-Aug-18 16:17 34.085277 -118.032773 115 301ft 0kts
01-Aug-18 16:18 34.086032 -118.033665 345 301ft 22kts
01-Aug-18 16:19 34.090412 -118.031618 336 301ft 0kts
01-Aug-18 16:20 34.090415 -118.031619 336 301ft 0kts
01-Aug-18 16:21 34.090545 -118.032247 208 301ft 7kts
01-Aug-18 16:22 34.076505 -118.040148 205 547ft 110kts
01-Aug-18 16:23 34.042100 -118.056601 190 1764ft 147kts
01-Aug-18 16:24 34.030750 -118.013936 80 3149ft 171kts
01-Aug-18 16:25 34.046919 -117.959988 81 4463ft 171kts
01-Aug-18 16:26 34.037762 -117.904316 111 5783ft 173kts
01-Aug-18 16:27 34.018204 -117.843861 111 5999ft 212kts
01-Aug-18 16:28 33.997440 -117.778059 111 6757ft 202kts
01-Aug-18 16:29 33.976603 -117.712448 111 6998ft 217kts
01-Aug-18 16:30 33.954842 -117.644131 111 7363ft 208kts
01-Aug-18 16:31 33.935287 -117.582842 111 8592ft 186kts
01-Aug-18 16:32 33.911080 -117.523652 141 8986ft 217kts
01-Aug-18 16:33 33.862211 -117.482773 145 9813ft 200kts
01-Aug-18 16:34 33.818205 -117.445883 145 10908ft 194kts
01-Aug-18 16:35 33.770512 -117.406003 145 11019ft 220kts
01-Aug-18 16:36 33.719184 -117.363107 145 11019ft 227kts
01-Aug-18 16:37 33.666343 -117.319012 145 10959ft 232kts
01-Aug-18 16:38 33.613071 -117.274625 145 10959ft 232kts
01-Aug-18 16:39 33.559986 -117.230471 145 10960ft 232kts
01-Aug-18 16:40 33.507389 -117.186778 145 10948ft 229kts
01-Aug-18 16:41 33.450518 -117.155773 169 10949ft 227kts
01-Aug-18 16:42 33.390056 -117.128417 152 10372ft 242kts
01-Aug-18 16:43 33.330536 -117.090204 152 9268ft 241kts
01-Aug-18 16:44 33.271650 -117.051974 152 8150ft 241kts
01-Aug-18 16:45 33.213062 -117.013628 151 6748ft 239kts
01-Aug-18 16:46 33.155196 -116.975415 151 5270ft 232kts
01-Aug-18 16:47 33.099816 -116.938744 152 3524ft 224kts
01-Aug-18 16:48 33.063646 -116.888153 103 2986ft 185kts
01-Aug-18 16:49 33.041239 -116.852477 186 2182ft 131kts
01-Aug-18 16:50 33.035372 -116.885864 280 1878ft 128kts
01-Aug-18 16:51 33.039175 -116.915557 281 1398ft 40kts
01-Aug-18 16:52 33.040386 -116.919799 43 1398ft 0kts
01-Aug-18 16:53 33.040395 -116.919787 49 1398ft 2kts
01-Aug-18 16:54 33.039684 -116.914602 97 1398ft 27kts
01-Aug-18 16:55 33.040050 -116.910619 9 1398ft 0kts
01-Aug-18 16:56 33.040051 -116.910619 9 1398ft 0kts
01-Aug-18 16:57 33.040051 -116.910619 9 1398ft 0kts
01-Aug-18 16:58 33.040051 -116.910619 9 1398ft 0kts
01-Aug-18 16:59 33.040051 -116.910619 9 1398ft 0kts
01-Aug-18 17:00 33.040051 -116.910619 9 1398ft 0kts
01-Aug-18 17:01 33.040051 -116.910619 9 1398ft 0kts
01-Aug-18 17:02 33.040051 -116.910619 9 1398ft 0kts
01-Aug-18 17:03 33.040051 -116.910619 9 1398ft 0kts

Navigation Log

Ident Type
Flight plan parsing failed, navigation log unavailable